LFTW/FNI METAR and TAF weather

Enter ICAO airport designator
Station Type Date Time Source
LFTW METAR 2020/06/01 17:00 UTC NOAA

LFTW 011700Z AUTO 21007KT 180V250 CAVOK 22/11 Q1017 NOSIG


Station Type Date Time Source
LFTW Decoded METAR 2020/06/01 17:00 UTC NOAA

Nimes / Garons, France (LFTW) 43-45N 004-25E 96M
Jun 01, 2020 - 01:00 PM EDT / 2020.06.01 1700 UTC
Wind: from the SSW (210 degrees) at 8 MPH (7 KT) (direction variable):0
Visibility: greater than 7 mile(s):0
Temperature: 71 F (22 C)
Dew Point: 51 F (11 C)
Relative Humidity: 49%
Pressure (altimeter): 30.03 in. Hg (1017 hPa)
ob: LFTW 011700Z AUTO 21007KT 180V250 CAVOK 22/11 Q1017 NOSIG
cycle: 17

Station Type Date Time Source
LFTW TAF 2020/06/01 15:42 UTC NOAA

TAF LFTW 011400Z 0115/0215 20010KT 9999 FEW035
BECMG 0119/0121 VRB03KT
BECMG 0209/0211 19010KT
TEMPO 0212/0215 FEW035CB BKN080

Example: see airport list